Time;durP1;ratioP1;P1;durP2;ratioP2;P2;SDS_P1;SDS_P2;PMS_P1;PMS_P2;Temp;Humidity;BMP_temperature;BMP_pressure;BME280_temperature;BME280_humidity;BME280_pressure;Samples;Min_cycle;Max_cycle;Signal;HPM_P1;HPM_P2
2023/06/26 00:01:55;;;;;;;5.90;4.55;;;19.90;99.90;;;;;;5013818;28;20187;-94
2023/06/26 00:04:21;;;;;;;7.82;4.05;;;19.90;99.90;;;;;;5015060;28;20526;-93
2023/06/26 00:06:50;;;;;;;5.03;4.53;;;19.90;99.90;;;;;;5015186;28;20178;-93
2023/06/26 00:09:15;;;;;;;4.80;4.30;;;19.90;99.90;;;;;;5029620;28;20213;-93
2023/06/26 00:11:41;;;;;;;5.43;4.22;;;19.90;99.90;;;;;;5013497;28;20234;-93
2023/06/26 00:14:07;;;;;;;5.80;4.40;;;19.80;99.90;;;;;;5014702;28;20179;-93
2023/06/26 00:16:32;;;;;;;5.10;4.10;;;19.80;99.90;;;;;;5014700;28;20314;-91
2023/06/26 00:19:01;;;;;;;6.30;4.38;;;19.80;99.90;;;;;;5015293;28;20175;-94
2023/06/26 00:21:27;;;;;;;7.63;4.32;;;19.70;99.90;;;;;;5013064;28;20183;-92
2023/06/26 00:23:52;;;;;;;5.53;4.22;;;19.70;99.90;;;;;;5014690;28;20202;-92
2023/06/26 00:26:19;;;;;;;6.07;4.30;;;19.60;99.90;;;;;;5014997;28;20233;-92
2023/06/26 00:28:45;;;;;;;7.80;4.20;;;19.60;99.90;;;;;;5014904;28;20262;-92
2023/06/26 00:31:10;;;;;;;8.23;4.18;;;19.50;99.90;;;;;;5013720;28;20215;-92
2023/06/26 00:33:36;;;;;;;4.90;4.30;;;19.40;99.90;;;;;;5014708;28;20183;-93
2023/06/26 00:36:02;;;;;;;5.40;4.38;;;19.40;99.90;;;;;;5014593;28;20193;-93
2023/06/26 00:38:29;;;;;;;5.30;4.32;;;19.30;99.90;;;;;;5028613;28;20325;-94
2023/06/26 00:40:58;;;;;;;5.55;4.50;;;19.20;99.90;;;;;;5015579;28;20189;-93
2023/06/26 00:43:23;;;;;;;4.80;4.38;;;19.20;99.90;;;;;;5013941;28;20262;-93
2023/06/26 00:45:49;;;;;;;5.97;4.50;;;19.20;99.90;;;;;;5014893;28;20210;-93
2023/06/26 00:48:15;;;;;;;6.85;4.32;;;19.20;99.90;;;;;;5013507;28;20249;-93
2023/06/26 00:50:42;;;;;;;8.07;4.38;;;19.10;99.90;;;;;;5018275;28;20282;-92
2023/06/26 00:53:10;;;;;;;5.97;4.72;;;19.00;99.90;;;;;;5017799;28;20514;-93
2023/06/26 00:55:36;;;;;;;4.78;3.95;;;19.00;99.90;;;;;;5018795;28;20178;-93
2023/06/26 00:58:04;;;;;;;6.15;4.47;;;19.00;99.90;;;;;;5018920;28;20185;-93
2023/06/26 01:00:30;;;;;;;9.13;4.72;;;18.90;99.90;;;;;;5018339;28;20183;-92
2023/06/26 01:02:59;;;;;;;5.03;4.53;;;18.80;99.90;;;;;;5017090;28;20198;-93
2023/06/26 01:05:26;;;;;;;5.25;4.75;;;18.80;99.90;;;;;;5017601;28;20281;-93
2023/06/26 01:07:52;;;;;;;8.07;4.53;;;18.90;99.90;;;;;;5027435;28;20238;-94
2023/06/26 01:10:21;;;;;;;7.75;5.30;;;18.90;99.90;;;;;;5024464;28;20654;-93
2023/06/26 01:12:47;;;;;;;6.03;4.10;;;18.90;99.90;;;;;;5018057;28;20195;-94
2023/06/26 01:15:12;;;;;;;5.45;4.60;;;18.80;99.90;;;;;;5018310;28;20182;-93
2023/06/26 01:17:45;;;;;;;6.82;4.65;;;18.90;99.90;;;;;;5017086;28;20508;-95
2023/06/26 01:20:15;;;;;;;6.93;5.10;;;18.90;99.90;;;;;;5017952;28;20182;-95
2023/06/26 01:22:45;;;;;;;4.68;4.18;;;18.90;99.90;;;;;;5015900;28;20187;-93
2023/06/26 01:25:20;;;;;;;6.60;4.40;;;18.90;99.90;;;;;;5017499;28;20258;-93
2023/06/26 01:27:48;;;;;;;9.30;4.53;;;18.80;99.90;;;;;;5017286;28;20186;-93
2023/06/26 01:30:22;;;;;;;6.10;4.50;;;18.70;99.90;;;;;;5017384;28;20219;-94
2023/06/26 01:32:50;;;;;;;5.47;4.40;;;18.70;99.90;;;;;;5017421;28;20174;-93
2023/06/26 01:35:15;;;;;;;5.65;4.68;;;18.60;99.90;;;;;;5001063;28;20191;-92
2023/06/26 01:37:41;;;;;;;6.65;4.57;;;18.60;99.90;;;;;;5014842;28;20227;-93
2023/06/26 01:40:12;;;;;;;6.90;4.75;;;18.70;99.90;;;;;;5017136;28;20182;-93
2023/06/26 01:42:39;;;;;;;5.20;4.70;;;18.60;99.90;;;;;;5016632;28;20661;-93
2023/06/26 01:45:17;;;;;;;5.10;4.55;;;18.60;99.90;;;;;;5016645;28;20187;-93
2023/06/26 01:47:49;;;;;;;6.60;4.32;;;18.50;99.90;;;;;;5017408;28;20179;-94
2023/06/26 01:50:22;;;;;;;7.75;4.63;;;18.50;99.90;;;;;;5017340;28;20199;-93
2023/06/26 01:53:12;;;;;;;5.80;4.40;;;18.50;99.90;;;;;;5017444;28;20179;-93
2023/06/26 01:55:53;;;;;;;5.57;4.30;;;18.50;99.90;;;;;;5006446;28;20198;-92
2023/06/26 01:58:25;;;;;;;5.05;4.38;;;18.50;99.90;;;;;;5017041;28;20207;-92
2023/06/26 02:00:51;;;;;;;6.25;4.13;;;18.50;99.90;;;;;;5008053;28;20281;-95
2023/06/26 02:03:17;;;;;;;5.32;3.90;;;18.50;99.90;;;;;;5017153;28;20250;-94
2023/06/26 02:05:44;;;;;;;4.85;4.35;;;18.50;99.90;;;;;;5015801;28;20187;-94
2023/06/26 02:08:10;;;;;;;5.43;4.50;;;18.50;99.90;;;;;;5012543;28;20277;-95
2023/06/26 02:10:36;;;;;;;4.95;4.25;;;18.60;99.90;;;;;;5030383;28;20243;-93
2023/06/26 02:13:01;;;;;;;4.95;4.43;;;18.60;99.90;;;;;;5016186;28;20221;-94
2023/06/26 02:15:27;;;;;;;5.97;4.20;;;18.60;99.90;;;;;;5016568;28;20523;-95
2023/06/26 02:17:53;;;;;;;6.85;4.55;;;18.50;99.90;;;;;;5016576;28;20179;-94
2023/06/26 02:20:18;;;;;;;6.35;4.55;;;18.50;99.90;;;;;;5015236;28;20175;-94
2023/06/26 02:22:44;;;;;;;4.70;4.20;;;18.50;99.90;;;;;;5016274;28;20187;-95
2023/06/26 02:25:12;;;;;;;4.50;4.07;;;18.40;99.90;;;;;;5016548;28;20195;-96
2023/06/26 02:27:38;;;;;;;4.20;3.80;;;18.50;99.90;;;;;;5016586;28;20250;-95
2023/06/26 02:30:04;;;;;;;6.35;4.30;;;18.50;99.90;;;;;;5014642;28;20262;-96
2023/06/26 02:32:30;;;;;;;7.90;4.65;;;18.50;99.90;;;;;;5015683;28;20638;-94
2023/06/26 02:34:56;;;;;;;5.25;4.72;;;18.40;99.90;;;;;;5015976;28;20230;-94
2023/06/26 02:37:29;;;;;;;6.25;4.10;;;18.40;99.90;;;;;;5021285;28;20288;-94
2023/06/26 02:39:55;;;;;;;7.32;4.22;;;18.30;99.90;;;;;;5033017;28;20252;-94
2023/06/26 02:42:20;;;;;;;9.48;4.15;;;18.20;99.90;;;;;;5015824;28;20238;-94
2023/06/26 02:44:46;;;;;;;6.95;4.43;;;18.20;99.90;;;;;;5015385;28;20257;-94
2023/06/26 02:47:12;;;;;;;8.35;4.55;;;18.10;99.90;;;;;;5015169;28;20634;-93
2023/06/26 02:49:37;;;;;;;6.60;4.03;;;18.20;99.90;;;;;;5015271;28;20179;-93
2023/06/26 02:52:04;;;;;;;5.50;3.90;;;18.20;99.90;;;;;;5007598;28;20226;-95
2023/06/26 02:54:30;;;;;;;8.85;4.25;;;18.10;99.90;;;;;;4996453;28;20172;-94
2023/06/26 02:56:55;;;;;;;5.28;4.78;;;18.10;99.90;;;;;;4998518;28;20183;-94
2023/06/26 02:59:24;;;;;;;8.60;4.95;;;18.10;99.90;;;;;;4999395;28;20585;-95
2023/06/26 03:01:50;;;;;;;8.50;4.80;;;18.10;99.90;;;;;;5016731;28;20187;-93
2023/06/26 03:04:17;;;;;;;5.15;4.40;;;18.10;99.90;;;;;;5014744;28;20365;-94
2023/06/26 03:06:43;;;;;;;6.10;4.30;;;18.10;99.90;;;;;;5017189;28;20233;-93
2023/06/26 03:09:09;;;;;;;6.70;4.60;;;18.20;99.90;;;;;;5014938;28;20581;-93
2023/06/26 03:11:36;;;;;;;6.22;4.70;;;18.20;99.90;;;;;;5015206;28;20207;-93
2023/06/26 03:14:02;;;;;;;5.68;4.45;;;18.20;99.90;;;;;;5014502;28;20190;-94
2023/06/26 03:16:31;;;;;;;6.63;4.53;;;18.20;99.90;;;;;;5015966;28;20187;-94
2023/06/26 03:18:56;;;;;;;5.82;4.68;;;18.20;99.90;;;;;;5014660;28;20183;-93
2023/06/26 03:21:22;;;;;;;5.93;4.00;;;18.20;99.90;;;;;;5016699;28;20624;-94
2023/06/26 03:23:48;;;;;;;5.97;4.38;;;18.20;99.90;;;;;;5016850;28;20213;-94
2023/06/26 03:26:27;;;;;;;6.90;4.53;;;18.20;99.90;;;;;;4999858;28;20274;-96
2023/06/26 03:28:53;;;;;;;6.53;4.55;;;18.10;99.90;;;;;;5014862;28;20186;-95
2023/06/26 03:31:20;;;;;;;6.05;4.38;;;18.10;99.90;;;;;;5015586;28;20242;-95
2023/06/26 03:33:46;;;;;;;6.18;4.20;;;18.10;99.90;;;;;;5014991;28;20190;-94
2023/06/26 03:36:13;;;;;;;6.95;4.40;;;18.10;99.90;;;;;;4999203;28;20179;-95
2023/06/26 03:38:39;;;;;;;6.20;4.15;;;18.10;99.90;;;;;;5007777;28;20314;-95
2023/06/26 03:41:07;;;;;;;5.68;4.38;;;18.10;99.90;;;;;;5015186;28;20274;-95
2023/06/26 03:43:35;;;;;;;10.25;4.47;;;18.10;99.90;;;;;;5015832;28;20182;-95
2023/06/26 03:46:01;;;;;;;8.13;4.60;;;18.10;99.90;;;;;;5015261;28;20175;-95
2023/06/26 03:48:29;;;;;;;6.97;4.40;;;18.10;99.90;;;;;;5015392;28;20284;-95
2023/06/26 03:50:58;;;;;;;5.28;4.75;;;18.10;99.90;;;;;;5014935;28;20210;-94
2023/06/26 03:53:24;;;;;;;7.57;4.32;;;18.10;99.90;;;;;;5014858;28;20186;-94
2023/06/26 03:55:50;;;;;;;7.30;5.20;;;18.00;99.90;;;;;;4998987;28;20187;-94
2023/06/26 03:58:15;;;;;;;6.65;4.28;;;18.00;99.90;;;;;;5017877;28;20609;-94
2023/06/26 04:00:41;;;;;;;5.90;4.78;;;18.00;99.90;;;;;;5018464;28;20187;-93
2023/06/26 04:03:07;;;;;;;7.43;4.78;;;18.10;99.90;;;;;;5017472;28;20193;-94
2023/06/26 04:05:33;;;;;;;6.50;4.80;;;18.10;99.90;;;;;;5016181;28;20191;-93
2023/06/26 04:07:59;;;;;;;8.80;5.25;;;18.10;99.90;;;;;;5016203;28;20230;-94
2023/06/26 04:10:25;;;;;;;5.10;4.63;;;18.20;99.90;;;;;;5016321;28;20213;-93
2023/06/26 04:13:00;;;;;;;5.88;4.60;;;18.20;99.90;;;;;;5018457;28;20198;-94
2023/06/26 04:15:25;;;;;;;7.20;4.30;;;18.20;99.90;;;;;;5019696;28;20175;-95
2023/06/26 04:17:51;;;;;;;6.43;4.90;;;18.30;99.90;;;;;;5020348;28;20199;-94
2023/06/26 04:20:17;;;;;;;8.63;5.20;;;18.30;99.90;;;;;;5020131;28;20179;-93
2023/06/26 04:22:42;;;;;;;8.20;5.18;;;18.30;99.90;;;;;;5021633;28;20210;-94
2023/06/26 04:25:14;;;;;;;5.28;4.72;;;18.30;99.90;;;;;;5025310;28;20194;-95
2023/06/26 04:27:40;;;;;;;8.88;5.00;;;18.40;99.90;;;;;;5018486;28;20218;-94
2023/06/26 04:30:06;;;;;;;6.88;4.63;;;18.50;99.90;;;;;;5007591;28;20199;-95
2023/06/26 04:32:33;;;;;;;5.28;4.70;;;18.50;99.90;;;;;;5025470;28;20237;-94
2023/06/26 04:34:59;;;;;;;5.85;4.13;;;18.60;99.90;;;;;;5005669;28;20179;-94
2023/06/26 04:37:26;;;;;;;6.05;4.78;;;18.70;99.90;;;;;;5019781;28;20234;-93
2023/06/26 04:39:52;;;;;;;6.53;5.00;;;18.80;99.90;;;;;;5021052;28;20182;-95
2023/06/26 04:42:21;;;;;;;9.05;4.70;;;18.90;99.90;;;;;;5027960;28;20685;-93
2023/06/26 04:44:47;;;;;;;6.45;5.00;;;19.10;99.90;;;;;;5008149;28;20189;-94
2023/06/26 04:47:14;;;;;;;7.43;4.20;;;19.20;99.90;;;;;;5019959;28;20210;-94
2023/06/26 04:49:45;;;;;;;6.85;4.20;;;19.40;99.90;;;;;;5020373;28;20183;-95
2023/06/26 04:52:16;;;;;;;12.35;4.60;;;19.60;99.90;;;;;;5019823;28;20305;-93
2023/06/26 04:54:42;;;;;;;8.23;4.68;;;19.80;99.90;;;;;;5018504;28;20183;-94
2023/06/26 04:57:11;;;;;;;7.35;4.20;;;19.90;99.90;;;;;;5019259;28;20191;-96
2023/06/26 04:59:37;;;;;;;4.85;4.18;;;20.10;99.90;;;;;;5019104;28;20182;-95
2023/06/26 05:02:04;;;;;;;5.75;4.60;;;20.20;99.90;;;;;;5019465;28;20524;-94
2023/06/26 05:04:33;;;;;;;10.82;4.50;;;20.30;99.90;;;;;;5020951;28;20194;-93
2023/06/26 05:06:59;;;;;;;6.60;4.35;;;20.40;99.90;;;;;;5019285;28;20178;-93
2023/06/26 05:09:25;;;;;;;7.32;4.07;;;20.50;99.90;;;;;;5017544;28;20184;-94
2023/06/26 05:11:51;;;;;;;7.35;4.15;;;20.50;99.90;;;;;;5017071;28;20211;-92
2023/06/26 05:14:16;;;;;;;7.20;4.28;;;20.60;99.90;;;;;;5024239;28;20179;-92
2023/06/26 05:16:42;;;;;;;6.80;4.38;;;20.60;99.90;;;;;;5016261;28;20194;-91
2023/06/26 05:19:08;;;;;;;6.97;4.22;;;20.60;99.90;;;;;;5016587;28;20187;-92
2023/06/26 05:21:34;;;;;;;7.57;4.15;;;20.60;99.90;;;;;;5017634;28;20190;-95
2023/06/26 05:24:05;;;;;;;6.35;4.32;;;20.60;99.90;;;;;;5017183;28;20277;-93
2023/06/26 05:26:32;;;;;;;4.93;4.13;;;20.70;99.90;;;;;;5016520;28;20269;-95
2023/06/26 05:28:58;;;;;;;5.07;4.32;;;20.80;99.90;;;;;;5017998;28;20206;-94
2023/06/26 05:31:27;;;;;;;8.38;4.47;;;20.90;99.90;;;;;;5016362;28;20222;-94
2023/06/26 05:33:57;;;;;;;7.30;4.55;;;20.90;99.90;;;;;;5016775;28;20277;-92
2023/06/26 05:36:24;;;;;;;5.05;4.40;;;21.00;99.90;;;;;;5016915;28;20187;-94
2023/06/26 05:38:50;;;;;;;4.85;4.18;;;21.10;99.90;;;;;;5016684;28;20257;-94
2023/06/26 05:41:19;;;;;;;6.97;4.60;;;21.10;99.90;;;;;;5015508;28;20572;-94
2023/06/26 05:43:44;;;;;;;10.43;4.47;;;21.20;99.90;;;;;;5024686;28;20678;-92
2023/06/26 05:46:11;;;;;;;5.63;4.35;;;21.30;99.90;;;;;;5036343;28;20179;-93
2023/06/26 05:48:37;;;;;;;4.90;4.13;;;21.30;99.90;;;;;;5037012;28;20182;-93
2023/06/26 05:51:03;;;;;;;7.05;4.07;;;21.40;99.90;;;;;;5036917;28;20564;-93
2023/06/26 05:53:30;;;;;;;4.97;3.90;;;21.40;99.90;;;;;;5036757;28;20213;-93
2023/06/26 05:55:56;;;;;;;5.55;4.07;;;21.40;99.90;;;;;;5036700;28;20206;-92
2023/06/26 05:58:27;;;;;;;5.45;4.00;;;21.50;99.90;;;;;;5036849;28;20617;-93
2023/06/26 06:00:53;;;;;;;4.65;3.90;;;21.50;99.90;;;;;;5022058;28;20187;-93
2023/06/26 06:03:23;;;;;;;7.85;4.20;;;21.60;99.90;;;;;;5016881;28;20186;-95
2023/06/26 06:05:49;;;;;;;5.28;3.65;;;21.70;99.90;;;;;;5015789;28;20205;-95
2023/06/26 06:08:14;;;;;;;5.43;3.92;;;21.70;99.90;;;;;;5015978;28;20191;-94
2023/06/26 06:10:40;;;;;;;5.95;3.85;;;21.80;99.90;;;;;;5016150;28;20210;-95
2023/06/26 06:13:06;;;;;;;5.93;4.32;;;21.90;99.90;;;;;;5016114;28;20195;-93
2023/06/26 06:15:32;;;;;;;7.45;4.03;;;21.90;99.90;;;;;;5015802;28;20183;-93
2023/06/26 06:17:57;;;;;;;4.88;4.00;;;22.10;99.90;;;;;;5016257;28;20194;-94
2023/06/26 06:20:23;;;;;;;6.03;4.07;;;22.20;99.90;;;;;;5017037;28;20636;-93
2023/06/26 06:22:49;;;;;;;4.10;3.70;;;22.30;99.90;;;;;;5016766;28;20183;-94
2023/06/26 06:25:15;;;;;;;6.03;4.13;;;22.40;99.90;;;;;;5016993;28;20229;-94
2023/06/26 06:27:41;;;;;;;12.07;4.10;;;22.40;99.90;;;;;;5017075;28;20176;-94
2023/06/26 06:30:10;;;;;;;6.07;4.00;;;22.50;99.90;;;;;;5016630;28;20223;-94
2023/06/26 06:32:36;;;;;;;6.18;4.40;;;22.60;99.90;;;;;;5015947;28;20183;-93
2023/06/26 06:35:08;;;;;;;4.90;4.00;;;22.70;99.90;;;;;;5013242;28;20190;-91
2023/06/26 06:37:34;;;;;;;6.20;3.97;;;22.80;99.90;;;;;;4996391;28;20674;-93
2023/06/26 06:40:00;;;;;;;5.15;4.18;;;22.90;99.90;;;;;;5015649;28;20179;-91
2023/06/26 06:42:25;;;;;;;4.63;3.95;;;23.00;99.90;;;;;;5015811;28;20186;-92
2023/06/26 06:45:00;;;;;;;6.72;4.18;;;23.10;99.90;;;;;;5014824;28;20278;-92
2023/06/26 06:47:25;;;;;;;5.85;3.83;;;23.20;99.90;;;;;;5010072;28;20198;-91
2023/06/26 06:49:51;;;;;;;6.03;4.18;;;23.30;99.90;;;;;;5011776;28;20195;-91
2023/06/26 06:52:17;;;;;;;6.75;4.18;;;23.30;99.90;;;;;;5011581;28;20218;-91
2023/06/26 06:54:54;;;;;;;4.97;4.20;;;23.40;99.90;;;;;;5013633;28;20270;-89
2023/06/26 06:57:21;;;;;;;8.30;4.68;;;23.50;99.90;;;;;;5016512;28;20190;-92
2023/06/26 06:59:47;;;;;;;6.07;4.28;;;23.60;99.90;;;;;;5008400;28;20629;-91
2023/06/26 07:02:13;;;;;;;4.80;3.95;;;23.80;99.90;;;;;;5014892;28;20297;-88
2023/06/26 07:04:39;;;;;;;7.97;4.10;;;24.10;99.90;;;;;;5012868;28;20180;-89
2023/06/26 07:07:05;;;;;;;4.28;3.78;;;24.20;99.90;;;;;;4997745;28;21073;-90
2023/06/26 07:09:30;;;;;;;5.72;4.15;;;24.30;99.90;;;;;;5015440;28;20184;-86
2023/06/26 07:11:56;;;;;;;4.40;3.90;;;24.50;99.90;;;;;;5015450;28;20547;-92
2023/06/26 07:14:23;;;;;;;7.03;4.20;;;24.70;99.90;;;;;;5028023;28;20189;-90
2023/06/26 07:16:48;;;;;;;8.80;4.03;;;24.70;99.90;;;;;;5035816;28;20170;-91
2023/06/26 07:19:14;;;;;;;7.35;3.85;;;24.80;99.90;;;;;;5014284;28;20186;-91
2023/06/26 07:21:41;;;;;;;5.28;3.75;;;25.10;99.90;;;;;;5014624;28;20186;-91
2023/06/26 07:24:07;;;;;;;7.45;4.20;;;25.30;99.90;;;;;;5014881;28;20184;-89
2023/06/26 07:26:33;;;;;;;7.95;3.90;;;25.40;99.90;;;;;;5013651;28;20183;-90
2023/06/26 07:28:58;;;;;;;5.43;4.47;;;25.40;99.90;;;;;;5016274;28;20187;-90
2023/06/26 07:31:27;;;;;;;5.72;4.00;;;25.60;99.90;;;;;;5014784;28;20223;-93
2023/06/26 07:33:54;;;;;;;4.88;4.22;;;25.70;99.90;;;;;;4998782;28;20207;-92
2023/06/26 07:36:20;;;;;;;9.38;4.10;;;25.80;99.90;;;;;;4999597;28;20283;-91
2023/06/26 07:38:46;;;;;;;6.30;3.85;;;25.70;99.90;;;;;;5014402;28;20290;-91
2023/06/26 07:41:11;;;;;;;4.28;3.50;;;25.70;99.90;;;;;;5014096;28;20558;-95
2023/06/26 07:43:41;;;;;;;6.43;4.43;;;25.60;99.90;;;;;;5022305;28;20194;-91
2023/06/26 07:46:07;;;;;;;6.35;4.45;;;25.60;99.90;;;;;;5023612;28;20191;-90
2023/06/26 07:48:33;;;;;;;4.90;4.20;;;25.60;99.90;;;;;;5015654;28;20190;-91
2023/06/26 07:50:58;;;;;;;6.63;4.03;;;25.70;99.90;;;;;;5012825;28;20306;-93
2023/06/26 07:53:25;;;;;;;6.78;4.47;;;25.80;99.90;;;;;;5014369;28;20614;-89
2023/06/26 07:55:51;;;;;;;5.55;4.07;;;25.80;99.90;;;;;;5014450;28;20183;-90
2023/06/26 07:58:17;;;;;;;7.18;4.28;;;25.90;99.90;;;;;;5010892;28;20319;-92
2023/06/26 08:00:42;;;;;;;7.45;4.40;;;26.00;99.90;;;;;;5011408;28;20229;-91
2023/06/26 08:03:08;;;;;;;7.10;4.85;;;26.10;99.90;;;;;;5014710;28;20197;-92
2023/06/26 08:05:35;;;;;;;6.72;4.05;;;26.30;99.90;;;;;;5015586;28;20175;-89
2023/06/26 08:08:02;;;;;;;5.93;4.72;;;26.40;99.90;;;;;;5014345;28;20266;-90
2023/06/26 08:10:28;;;;;;;5.95;4.32;;;26.50;99.90;;;;;;5013634;28;20211;-90
2023/06/26 08:12:55;;;;;;;6.15;4.63;;;26.50;99.90;;;;;;5015403;28;20495;-90
2023/06/26 08:15:24;;;;;;;12.93;4.28;;;26.70;99.90;;;;;;5023761;28;20273;-91
2023/06/26 08:17:50;;;;;;;6.70;4.45;;;26.70;99.90;;;;;;4993211;28;20611;-94
2023/06/26 08:20:16;;;;;;;5.57;4.53;;;26.80;99.90;;;;;;5011593;28;20186;-92
2023/06/26 08:22:41;;;;;;;6.50;4.40;;;26.80;99.90;;;;;;5014166;28;20186;-90
2023/06/26 08:25:08;;;;;;;4.97;3.85;;;26.80;99.90;;;;;;5014166;28;20218;-90
2023/06/26 08:27:42;;;;;;;5.38;4.20;;;27.00;99.90;;;;;;5015562;28;20210;-93
2023/06/26 08:30:08;;;;;;;4.72;3.92;;;27.20;99.90;;;;;;5014618;28;20177;-94
2023/06/26 08:32:34;;;;;;;5.75;4.38;;;27.30;99.30;;;;;;5013938;28;20187;-91
2023/06/26 08:35:07;;;;;;;4.53;4.13;;;27.50;99.90;;;;;;5014416;28;20186;-91
2023/06/26 08:37:32;;;;;;;7.32;4.57;;;27.50;97.90;;;;;;5014367;28;20234;-89
2023/06/26 08:40:02;;;;;;;4.90;4.20;;;27.40;98.70;;;;;;5010506;28;20198;-90
2023/06/26 08:42:28;;;;;;;8.63;4.50;;;27.30;99.10;;;;;;4995084;28;20531;-92
2023/06/26 08:44:55;;;;;;;7.47;4.03;;;27.60;99.70;;;;;;5011535;28;20194;-92
2023/06/26 08:47:22;;;;;;;5.65;3.80;;;27.80;99.10;;;;;;5014562;28;20179;-89
2023/06/26 08:50:12;;;;;;;5.10;4.43;;;27.90;99.10;;;;;;5014265;28;20182;-92
2023/06/26 08:52:50;;;;;;;5.82;4.15;;;27.90;99.50;;;;;;5005400;28;20187;-93
2023/06/26 08:55:26;;;;;;;6.32;4.28;;;27.70;98.70;;;;;;5016818;28;20618;-91
2023/06/26 08:57:54;;;;;;;4.40;4.00;;;27.60;99.90;;;;;;5093310;22;21143;-88
2023/06/26 09:00:20;;;;;;;5.07;4.13;;;27.60;99.70;;;;;;5013360;28;20195;-89
2023/06/26 09:02:47;;;;;;;4.90;4.13;;;27.60;99.10;;;;;;5014800;28;20197;-93
2023/06/26 09:05:15;;;;;;;5.53;4.22;;;27.60;98.10;;;;;;5016138;28;20190;-90
2023/06/26 09:07:41;;;;;;;8.68;4.47;;;27.50;98.10;;;;;;5015819;28;20179;-88
2023/06/26 09:10:10;;;;;;;4.43;3.90;;;27.50;99.60;;;;;;5020796;28;20246;-92
2023/06/26 09:12:39;;;;;;;6.40;4.50;;;27.60;99.90;;;;;;5019017;28;20187;-90
2023/06/26 09:15:08;;;;;;;7.20;4.50;;;27.70;98.90;;;;;;5018568;28;20221;-88
2023/06/26 09:17:39;;;;;;;5.30;4.13;;;27.90;99.90;;;;;;5018225;28;20206;-90
2023/06/26 09:20:07;;;;;;;6.38;4.32;;;28.00;99.90;;;;;;5017011;28;20189;-91
2023/06/26 09:22:38;;;;;;;5.40;4.20;;;28.00;98.10;;;;;;5017452;28;20178;-93
2023/06/26 09:25:06;;;;;;;5.93;4.03;;;28.20;99.90;;;;;;5013321;28;20219;-91
2023/06/26 09:27:32;;;;;;;6.05;4.07;;;28.00;99.90;;;;;;5016545;28;20191;-90
2023/06/26 09:29:58;;;;;;;7.18;4.50;;;27.80;99.90;;;;;;5015845;28;20205;-92
2023/06/26 09:32:30;;;;;;;4.93;4.32;;;27.90;98.60;;;;;;5017085;28;20645;-89
2023/06/26 09:34:56;;;;;;;6.10;4.43;;;27.90;97.90;;;;;;5016627;28;20614;-90
2023/06/26 09:37:24;;;;;;;6.22;4.10;;;28.00;99.90;;;;;;5016263;28;20191;-90
2023/06/26 09:39:58;;;;;;;6.03;4.70;;;28.20;99.90;;;;;;5017606;28;20317;-90
2023/06/26 09:42:24;;;;;;;5.05;4.45;;;28.30;98.50;;;;;;5018035;28;20171;-91
2023/06/26 09:44:50;;;;;;;6.95;4.13;;;28.40;98.60;;;;;;5012942;28;20652;-92
2023/06/26 09:47:19;;;;;;;5.75;4.57;;;28.50;98.60;;;;;;5016619;28;20184;-91
2023/06/26 09:49:45;;;;;;;4.90;4.40;;;28.60;99.60;;;;;;5016613;28;20167;-91
2023/06/26 09:52:15;;;;;;;7.72;4.40;;;28.80;99.90;;;;;;5016413;28;20208;-92
2023/06/26 09:54:41;;;;;;;7.70;4.05;;;28.60;98.20;;;;;;5017022;28;20206;-90
2023/06/26 09:57:13;;;;;;;6.18;4.68;;;28.60;99.50;;;;;;5016461;28;20218;-93
2023/06/26 09:59:40;;;;;;;7.22;4.50;;;28.50;99.90;;;;;;5016286;28;20234;-91
2023/06/26 10:02:06;;;;;;;5.53;4.68;;;28.30;99.90;;;;;;5015511;28;20191;-91
2023/06/26 10:04:33;;;;;;;4.97;4.32;;;28.20;99.90;;;;;;5016123;28;20206;-93
2023/06/26 10:07:12;;;;;;;10.18;4.72;;;28.20;99.70;;;;;;5015919;28;20189;-93
2023/06/26 10:09:42;;;;;;;6.30;4.57;;;28.40;99.90;;;;;;5017054;28;20182;-94
2023/06/26 10:12:29;;;;;;;5.28;4.65;;;28.40;99.60;;;;;;5014693;28;20219;-91
2023/06/26 10:15:00;;;;;;;5.47;4.50;;;28.60;99.90;;;;;;5016576;28;20187;-91
2023/06/26 10:17:30;;;;;;;8.07;5.15;;;28.70;99.70;;;;;;5005137;28;20630;-91
2023/06/26 10:20:01;;;;;;;9.95;5.30;;;28.80;99.90;;;;;;4995316;28;20203;-94
2023/06/26 10:22:31;;;;;;;5.40;4.90;;;28.80;99.90;;;;;;4997265;28;20656;-91
2023/06/26 10:25:00;;;;;;;7.82;4.45;;;28.80;99.50;;;;;;5000401;28;20202;-95
2023/06/26 10:27:33;;;;;;;7.32;4.78;;;28.90;99.60;;;;;;5014636;28;20183;-96
2023/06/26 10:30:04;;;;;;;5.90;5.30;;;29.00;99.20;;;;;;5015548;28;20182;-93
2023/06/26 10:32:30;;;;;;;7.65;5.25;;;28.80;97.80;;;;;;5015238;28;20218;-92
2023/06/26 10:34:56;;;;;;;7.75;5.57;;;28.60;99.90;;;;;;5014904;28;20187;-92
2023/06/26 10:37:44;;;;;;;6.80;5.63;;;28.60;99.30;;;;;;5016214;28;20636;-90
2023/06/26 10:40:11;;;;;;;5.65;5.03;;;28.60;99.30;;;;;;5015254;28;20178;-92
2023/06/26 10:42:39;;;;;;;5.90;4.75;;;28.70;99.00;;;;;;5014998;28;20190;-93
2023/06/26 10:45:21;;;;;;;6.57;5.53;;;28.70;99.90;;;;;;5012853;28;20187;-90
2023/06/26 10:47:54;;;;;;;10.95;5.35;;;28.80;99.90;;;;;;5016106;28;20617;-95
2023/06/26 10:50:25;;;;;;;6.70;5.38;;;29.00;99.90;;;;;;5016640;28;20175;-94
2023/06/26 10:53:13;;;;;;;8.98;5.43;;;29.10;99.80;;;;;;5015970;28;20202;-92
2023/06/26 10:55:59;;;;;;;8.07;6.18;;;28.90;99.30;;;;;;5015797;28;20272;-95
2023/06/26 10:58:35;;;;;;;11.45;6.15;;;28.50;98.30;;;;;;5006504;28;20607;-91
2023/06/26 11:01:22;;;;;;;10.43;5.88;;;28.10;99.10;;;;;;5021948;28;20195;-90
2023/06/26 11:03:58;;;;;;;8.23;6.28;;;28.10;99.80;;;;;;4997598;28;20211;-92
2023/06/26 11:06:24;;;;;;;13.25;6.40;;;28.10;99.10;;;;;;5028905;28;20194;-90
2023/06/26 11:08:58;;;;;;;13.27;6.88;;;28.00;98.70;;;;;;5014958;28;20533;-94
2023/06/26 11:11:53;;;;;;;6.95;6.25;;;27.80;98.80;;;;;;5015684;28;20262;-91
2023/06/26 11:14:20;;;;;;;10.90;6.10;;;27.50;99.30;;;;;;5014722;28;20376;-89
2023/06/26 11:16:56;;;;;;;8.73;6.47;;;27.30;99.90;;;;;;5013017;28;20195;-90
2023/06/26 11:19:21;;;;;;;7.15;5.65;;;27.40;99.90;;;;;;5014976;28;20175;-90
2023/06/26 11:21:47;;;;;;;14.57;6.95;;;27.50;99.90;;;;;;5014496;28;20587;-93
2023/06/26 11:24:14;;;;;;;8.00;5.85;;;27.50;99.50;;;;;;5014746;28;20183;-90
2023/06/26 11:26:47;;;;;;;11.95;6.75;;;27.30;99.90;;;;;;5014905;28;20191;-88
2023/06/26 11:29:13;;;;;;;9.60;7.20;;;27.10;99.90;;;;;;5014922;28;20606;-90
2023/06/26 11:31:41;;;;;;;7.72;6.45;;;26.90;99.90;;;;;;5012823;28;20229;-92
2023/06/26 11:34:10;;;;;;;9.23;6.68;;;26.70;99.90;;;;;;5013700;28;20283;-88
2023/06/26 11:36:36;;;;;;;10.52;7.40;;;26.50;99.90;;;;;;5012972;28;20198;-93
2023/06/26 11:39:07;;;;;;;11.68;7.07;;;26.20;99.90;;;;;;5013907;28;20182;-91
2023/06/26 11:41:38;;;;;;;13.15;7.53;;;26.00;99.90;;;;;;5013749;28;20632;-91
2023/06/26 11:44:07;;;;;;;11.30;8.98;;;25.80;99.90;;;;;;5007324;28;20188;-88
2023/06/26 11:46:34;;;;;;;15.65;9.13;;;25.70;99.90;;;;;;5014824;28;20186;-89
2023/06/26 11:49:02;;;;;;;16.48;9.27;;;25.50;99.90;;;;;;5015150;28;20226;-91
2023/06/26 11:51:28;;;;;;;12.75;8.75;;;25.20;99.90;;;;;;5018865;28;20213;-87
2023/06/26 11:53:54;;;;;;;11.80;8.48;;;24.90;99.90;;;;;;5019555;28;20179;-87
2023/06/26 11:56:22;;;;;;;11.52;6.63;;;24.70;99.90;;;;;;5019514;28;20188;-87
2023/06/26 11:59:02;;;;;;;9.50;5.95;;;24.50;99.90;;;;;;5018747;28;20226;-91
2023/06/26 12:01:35;;;;;;;7.68;5.65;;;24.40;99.90;;;;;;5015670;28;20191;-87
2023/06/26 12:04:04;;;;;;;10.75;5.93;;;24.10;99.90;;;;;;5014714;28;20226;-88
2023/06/26 12:06:32;;;;;;;7.50;5.65;;;24.00;99.90;;;;;;5013814;28;20221;-88
2023/06/26 12:09:00;;;;;;;8.55;5.55;;;24.00;99.90;;;;;;5014927;28;20175;-87
2023/06/26 12:11:28;;;;;;;8.48;6.07;;;23.90;99.90;;;;;;5012747;28;20674;-89
2023/06/26 12:13:54;;;;;;;6.20;5.60;;;23.80;99.90;;;;;;5010045;28;20184;-93
2023/06/26 12:16:20;;;;;;;7.93;5.88;;;23.70;99.90;;;;;;5012763;28;20193;-88
2023/06/26 12:18:50;;;;;;;7.07;5.53;;;23.70;99.90;;;;;;5011618;28;20565;-88
2023/06/26 12:21:52;;;;;;;7.40;5.65;;;23.60;99.90;;;;;;5013648;28;20191;-87
2023/06/26 12:24:20;;;;;;;7.05;5.30;;;23.40;99.90;;;;;;4983613;28;20202;-88
2023/06/26 12:26:49;;;;;;;10.77;6.07;;;23.40;99.90;;;;;;5013654;28;20273;-88
2023/06/26 12:29:18;;;;;;;8.43;5.45;;;23.30;99.90;;;;;;5014117;28;20201;-86
2023/06/26 12:31:52;;;;;;;9.77;6.38;;;23.20;99.90;;;;;;5013613;28;20253;-89
2023/06/26 12:34:26;;;;;;;8.02;6.22;;;23.10;99.90;;;;;;5023138;28;20642;-86
2023/06/26 12:36:52;;;;;;;8.68;6.13;;;23.10;99.90;;;;;;5014104;28;20521;-88
2023/06/26 12:39:24;;;;;;;7.40;6.00;;;23.00;99.90;;;;;;5019671;28;20178;-89
2023/06/26 12:42:01;;;;;;;6.32;5.68;;;23.00;99.90;;;;;;5027663;28;20527;-86
2023/06/26 12:44:30;;;;;;;10.25;6.43;;;23.00;99.90;;;;;;5017613;28;20190;-87
2023/06/26 12:47:03;;;;;;;7.88;6.22;;;23.00;99.90;;;;;;5018027;28;20182;-87
2023/06/26 12:49:35;;;;;;;8.20;6.07;;;23.00;99.90;;;;;;5001298;28;20645;-87
2023/06/26 12:52:04;;;;;;;11.20;6.93;;;23.10;99.90;;;;;;5006210;28;20322;-87